Terminal Aerodrome Forecast
Issued by NWS

Current Version | Previous Version | Graphics & Text | Print | Product List | Glossary On
Versions: 1 2 3 4 5 6 7 8 9 10 11 12 13 14 15 16 17
416
FTUS41 KPBZ 162320
TAFMGW
TAF
KMGW 162320Z 1700/1724 31010KT P6SM SKC
     FM170600 30007KT P6SM BKN070
     FM171400 20006KT P6SM SCT250=

USA.gov is the U.S. government's official web portal to all federal, state and local government web resources and services.